sensor_id;sensor_type;location;lat;lon;timestamp;P1;durP1;ratioP1;P2;durP2;ratioP2
62353;SDS011;48391;49.184;2.418;2023-04-06T00:01:57;3.03;;;2.83;;
62353;SDS011;48391;49.184;2.418;2023-04-06T00:04:23;2.65;;;2.45;;
62353;SDS011;48391;49.184;2.418;2023-04-06T00:06:49;2.90;;;2.70;;
62353;SDS011;48391;49.184;2.418;2023-04-06T00:09:15;2.50;;;2.30;;
62353;SDS011;48391;49.184;2.418;2023-04-06T00:11:41;5.03;;;2.83;;
62353;SDS011;48391;49.184;2.418;2023-04-06T00:14:07;3.83;;;2.90;;
62353;SDS011;48391;49.184;2.418;2023-04-06T00:16:33;3.95;;;2.92;;
62353;SDS011;48391;49.184;2.418;2023-04-06T00:19:00;2.72;;;2.53;;
62353;SDS011;48391;49.184;2.418;2023-04-06T00:21:26;2.92;;;2.20;;
62353;SDS011;48391;49.184;2.418;2023-04-06T00:23:52;8.02;;;4.75;;
62353;SDS011;48391;49.184;2.418;2023-04-06T00:26:18;6.82;;;4.10;;
62353;SDS011;48391;49.184;2.418;2023-04-06T00:28:44;3.72;;;3.42;;
62353;SDS011;48391;49.184;2.418;2023-04-06T00:31:11;4.13;;;3.35;;
62353;SDS011;48391;49.184;2.418;2023-04-06T00:33:37;6.60;;;3.67;;
62353;SDS011;48391;49.184;2.418;2023-04-06T00:36:03;4.43;;;3.63;;
62353;SDS011;48391;49.184;2.418;2023-04-06T00:38:30;4.63;;;3.25;;
62353;SDS011;48391;49.184;2.418;2023-04-06T00:40:56;4.28;;;3.03;;
62353;SDS011;48391;49.184;2.418;2023-04-06T00:43:22;4.70;;;3.13;;
62353;SDS011;48391;49.184;2.418;2023-04-06T00:45:49;2.58;;;2.40;;
62353;SDS011;48391;49.184;2.418;2023-04-06T00:48:15;4.47;;;2.88;;
62353;SDS011;48391;49.184;2.418;2023-04-06T00:50:42;3.47;;;2.60;;
62353;SDS011;48391;49.184;2.418;2023-04-06T00:53:08;2.80;;;2.60;;
62353;SDS011;48391;49.184;2.418;2023-04-06T00:55:34;3.05;;;2.75;;
62353;SDS011;48391;49.184;2.418;2023-04-06T00:58:01;3.65;;;2.45;;
62353;SDS011;48391;49.184;2.418;2023-04-06T01:00:28;4.13;;;3.08;;
62353;SDS011;48391;49.184;2.418;2023-04-06T01:02:55;2.95;;;2.55;;
62353;SDS011;48391;49.184;2.418;2023-04-06T01:05:21;3.83;;;2.42;;
62353;SDS011;48391;49.184;2.418;2023-04-06T01:07:47;4.55;;;2.92;;
62353;SDS011;48391;49.184;2.418;2023-04-06T01:10:23;3.75;;;3.45;;
62353;SDS011;48391;49.184;2.418;2023-04-06T01:12:49;4.03;;;3.15;;
62353;SDS011;48391;49.184;2.418;2023-04-06T01:15:15;4.07;;;3.65;;
62353;SDS011;48391;49.184;2.418;2023-04-06T01:17:41;5.53;;;3.67;;
62353;SDS011;48391;49.184;2.418;2023-04-06T01:20:07;3.72;;;3.33;;
62353;SDS011;48391;49.184;2.418;2023-04-06T01:22:33;3.15;;;2.85;;
62353;SDS011;48391;49.184;2.418;2023-04-06T01:24:59;4.60;;;3.10;;
62353;SDS011;48391;49.184;2.418;2023-04-06T01:27:25;3.28;;;2.97;;
62353;SDS011;48391;49.184;2.418;2023-04-06T01:29:53;3.70;;;2.75;;
62353;SDS011;48391;49.184;2.418;2023-04-06T01:32:19;4.15;;;3.17;;
62353;SDS011;48391;49.184;2.418;2023-04-06T01:34:45;3.88;;;3.20;;
62353;SDS011;48391;49.184;2.418;2023-04-06T01:37:11;3.30;;;2.90;;
62353;SDS011;48391;49.184;2.418;2023-04-06T01:39:38;3.33;;;2.92;;
62353;SDS011;48391;49.184;2.418;2023-04-06T01:42:04;3.65;;;2.42;;
62353;SDS011;48391;49.184;2.418;2023-04-06T01:44:30;4.43;;;3.17;;
62353;SDS011;48391;49.184;2.418;2023-04-06T01:46:56;3.17;;;2.80;;
62353;SDS011;48391;49.184;2.418;2023-04-06T01:49:22;3.90;;;2.65;;
62353;SDS011;48391;49.184;2.418;2023-04-06T01:51:48;2.10;;;1.90;;
62353;SDS011;48391;49.184;2.418;2023-04-06T01:54:14;2.58;;;2.10;;
62353;SDS011;48391;49.184;2.418;2023-04-06T01:56:40;2.15;;;1.98;;
62353;SDS011;48391;49.184;2.418;2023-04-06T01:59:06;3.40;;;2.50;;
62353;SDS011;48391;49.184;2.418;2023-04-06T02:01:32;2.15;;;2.03;;
62353;SDS011;48391;49.184;2.418;2023-04-06T02:03:58;4.47;;;3.03;;
62353;SDS011;48391;49.184;2.418;2023-04-06T02:06:24;3.13;;;2.60;;
62353;SDS011;48391;49.184;2.418;2023-04-06T02:08:51;2.38;;;2.10;;
62353;SDS011;48391;49.184;2.418;2023-04-06T02:11:17;2.90;;;2.65;;
62353;SDS011;48391;49.184;2.418;2023-04-06T02:13:43;3.15;;;2.50;;
62353;SDS011;48391;49.184;2.418;2023-04-06T02:16:09;2.60;;;1.80;;
62353;SDS011;48391;49.184;2.418;2023-04-06T02:18:36;4.40;;;2.30;;
62353;SDS011;48391;49.184;2.418;2023-04-06T02:21:02;2.75;;;2.35;;
62353;SDS011;48391;49.184;2.418;2023-04-06T02:23:28;2.80;;;2.53;;
62353;SDS011;48391;49.184;2.418;2023-04-06T02:25:54;2.95;;;2.30;;
62353;SDS011;48391;49.184;2.418;2023-04-06T02:28:20;3.75;;;3.20;;
62353;SDS011;48391;49.184;2.418;2023-04-06T02:30:46;4.43;;;3.10;;
62353;SDS011;48391;49.184;2.418;2023-04-06T02:33:12;4.80;;;2.55;;
62353;SDS011;48391;49.184;2.418;2023-04-06T02:35:38;2.30;;;2.10;;
62353;SDS011;48391;49.184;2.418;2023-04-06T02:38:04;4.22;;;2.70;;
62353;SDS011;48391;49.184;2.418;2023-04-06T02:40:30;3.30;;;2.33;;
62353;SDS011;48391;49.184;2.418;2023-04-06T02:42:56;3.05;;;2.75;;
62353;SDS011;48391;49.184;2.418;2023-04-06T02:45:22;2.72;;;2.00;;
62353;SDS011;48391;49.184;2.418;2023-04-06T02:47:48;2.53;;;1.80;;
62353;SDS011;48391;49.184;2.418;2023-04-06T02:50:14;2.38;;;2.17;;
62353;SDS011;48391;49.184;2.418;2023-04-06T02:52:41;2.80;;;2.60;;
62353;SDS011;48391;49.184;2.418;2023-04-06T02:55:07;3.15;;;2.08;;
62353;SDS011;48391;49.184;2.418;2023-04-06T02:57:33;4.40;;;3.83;;
62353;SDS011;48391;49.184;2.418;2023-04-06T02:59:59;8.75;;;6.45;;
62353;SDS011;48391;49.184;2.418;2023-04-06T03:02:25;8.52;;;6.18;;
62353;SDS011;48391;49.184;2.418;2023-04-06T03:04:51;6.43;;;4.65;;
62353;SDS011;48391;49.184;2.418;2023-04-06T03:07:17;7.15;;;5.13;;
62353;SDS011;48391;49.184;2.418;2023-04-06T03:09:43;5.10;;;4.57;;
62353;SDS011;48391;49.184;2.418;2023-04-06T03:12:09;4.45;;;2.97;;
62353;SDS011;48391;49.184;2.418;2023-04-06T03:14:35;3.72;;;2.83;;
62353;SDS011;48391;49.184;2.418;2023-04-06T03:17:01;5.65;;;3.38;;
62353;SDS011;48391;49.184;2.418;2023-04-06T03:19:27;2.85;;;2.58;;
62353;SDS011;48391;49.184;2.418;2023-04-06T03:21:53;4.20;;;2.80;;
62353;SDS011;48391;49.184;2.418;2023-04-06T03:24:19;3.72;;;3.10;;
62353;SDS011;48391;49.184;2.418;2023-04-06T03:26:45;4.65;;;3.90;;
62353;SDS011;48391;49.184;2.418;2023-04-06T03:29:11;5.13;;;3.35;;
62353;SDS011;48391;49.184;2.418;2023-04-06T03:31:37;3.78;;;3.38;;
62353;SDS011;48391;49.184;2.418;2023-04-06T03:34:03;4.35;;;3.25;;
62353;SDS011;48391;49.184;2.418;2023-04-06T03:36:29;3.60;;;2.95;;
62353;SDS011;48391;49.184;2.418;2023-04-06T03:38:55;3.92;;;2.80;;
62353;SDS011;48391;49.184;2.418;2023-04-06T03:41:21;2.50;;;2.30;;
62353;SDS011;48391;49.184;2.418;2023-04-06T03:43:47;4.35;;;2.63;;
62353;SDS011;48391;49.184;2.418;2023-04-06T03:46:13;3.50;;;2.55;;
62353;SDS011;48391;49.184;2.418;2023-04-06T03:48:39;4.30;;;3.10;;
62353;SDS011;48391;49.184;2.418;2023-04-06T03:51:05;3.45;;;3.03;;
62353;SDS011;48391;49.184;2.418;2023-04-06T03:53:31;3.75;;;2.83;;
62353;SDS011;48391;49.184;2.418;2023-04-06T03:55:57;4.75;;;3.03;;
62353;SDS011;48391;49.184;2.418;2023-04-06T03:58:24;3.33;;;2.70;;
62353;SDS011;48391;49.184;2.418;2023-04-06T04:00:50;3.63;;;3.08;;
62353;SDS011;48391;49.184;2.418;2023-04-06T04:03:16;3.22;;;2.53;;
62353;SDS011;48391;49.184;2.418;2023-04-06T04:05:42;2.95;;;2.60;;
62353;SDS011;48391;49.184;2.418;2023-04-06T04:08:09;3.33;;;3.03;;
62353;SDS011;48391;49.184;2.418;2023-04-06T04:10:35;2.50;;;2.30;;
62353;SDS011;48391;49.184;2.418;2023-04-06T04:13:01;2.80;;;2.50;;
62353;SDS011;48391;49.184;2.418;2023-04-06T04:15:27;3.13;;;2.83;;
62353;SDS011;48391;49.184;2.418;2023-04-06T04:17:53;4.25;;;3.17;;
62353;SDS011;48391;49.184;2.418;2023-04-06T04:20:19;4.28;;;3.70;;
62353;SDS011;48391;49.184;2.418;2023-04-06T04:22:45;4.50;;;2.92;;
62353;SDS011;48391;49.184;2.418;2023-04-06T04:25:11;3.17;;;2.88;;
62353;SDS011;48391;49.184;2.418;2023-04-06T04:27:37;2.85;;;2.38;;
62353;SDS011;48391;49.184;2.418;2023-04-06T04:30:03;3.03;;;2.65;;
62353;SDS011;48391;49.184;2.418;2023-04-06T04:32:29;2.50;;;2.15;;
62353;SDS011;48391;49.184;2.418;2023-04-06T04:34:55;2.20;;;1.98;;
62353;SDS011;48391;49.184;2.418;2023-04-06T04:37:21;2.67;;;2.20;;
62353;SDS011;48391;49.184;2.418;2023-04-06T04:39:47;3.05;;;2.30;;
62353;SDS011;48391;49.184;2.418;2023-04-06T04:42:13;2.30;;;2.10;;
62353;SDS011;48391;49.184;2.418;2023-04-06T04:44:40;2.47;;;2.28;;
62353;SDS011;48391;49.184;2.418;2023-04-06T04:47:06;3.00;;;2.70;;
62353;SDS011;48391;49.184;2.418;2023-04-06T04:49:32;2.65;;;2.25;;
62353;SDS011;48391;49.184;2.418;2023-04-06T04:51:58;3.13;;;2.90;;
62353;SDS011;48391;49.184;2.418;2023-04-06T04:54:24;3.25;;;2.80;;
62353;SDS011;48391;49.184;2.418;2023-04-06T04:56:50;2.65;;;2.45;;
62353;SDS011;48391;49.184;2.418;2023-04-06T04:59:16;2.50;;;2.30;;
62353;SDS011;48391;49.184;2.418;2023-04-06T05:01:42;3.60;;;2.88;;
62353;SDS011;48391;49.184;2.418;2023-04-06T05:04:08;3.13;;;2.92;;
62353;SDS011;48391;49.184;2.418;2023-04-06T05:06:34;3.35;;;2.45;;
62353;SDS011;48391;49.184;2.418;2023-04-06T05:09:00;3.00;;;2.55;;
62353;SDS011;48391;49.184;2.418;2023-04-06T05:11:26;3.10;;;2.40;;
62353;SDS011;48391;49.184;2.418;2023-04-06T05:13:53;2.70;;;2.50;;
62353;SDS011;48391;49.184;2.418;2023-04-06T05:16:19;3.47;;;2.42;;
62353;SDS011;48391;49.184;2.418;2023-04-06T05:18:45;3.05;;;2.75;;
62353;SDS011;48391;49.184;2.418;2023-04-06T05:21:13;3.17;;;2.30;;
62353;SDS011;48391;49.184;2.418;2023-04-06T05:23:39;2.38;;;2.17;;
62353;SDS011;48391;49.184;2.418;2023-04-06T05:26:05;2.95;;;2.53;;
62353;SDS011;48391;49.184;2.418;2023-04-06T05:28:32;3.45;;;2.63;;
62353;SDS011;48391;49.184;2.418;2023-04-06T05:30:58;3.60;;;3.22;;
62353;SDS011;48391;49.184;2.418;2023-04-06T05:33:24;2.75;;;2.13;;
62353;SDS011;48391;49.184;2.418;2023-04-06T05:35:50;2.60;;;2.40;;
62353;SDS011;48391;49.184;2.418;2023-04-06T05:38:16;2.65;;;2.33;;
62353;SDS011;48391;49.184;2.418;2023-04-06T05:40:42;2.97;;;2.50;;
62353;SDS011;48391;49.184;2.418;2023-04-06T05:43:08;4.68;;;3.47;;
62353;SDS011;48391;49.184;2.418;2023-04-06T05:45:34;2.78;;;2.50;;
62353;SDS011;48391;49.184;2.418;2023-04-06T05:48:00;4.28;;;3.33;;
62353;SDS011;48391;49.184;2.418;2023-04-06T05:50:27;3.65;;;3.20;;
62353;SDS011;48391;49.184;2.418;2023-04-06T05:52:53;4.43;;;2.95;;
62353;SDS011;48391;49.184;2.418;2023-04-06T05:55:19;4.40;;;3.42;;
62353;SDS011;48391;49.184;2.418;2023-04-06T05:57:45;3.35;;;2.90;;
62353;SDS011;48391;49.184;2.418;2023-04-06T06:00:12;3.63;;;3.17;;
62353;SDS011;48391;49.184;2.418;2023-04-06T06:02:38;3.30;;;3.00;;
62353;SDS011;48391;49.184;2.418;2023-04-06T06:05:04;3.25;;;2.83;;
62353;SDS011;48391;49.184;2.418;2023-04-06T06:07:30;3.30;;;3.00;;
62353;SDS011;48391;49.184;2.418;2023-04-06T06:09:57;2.83;;;2.60;;
62353;SDS011;48391;49.184;2.418;2023-04-06T06:12:23;3.00;;;2.42;;
62353;SDS011;48391;49.184;2.418;2023-04-06T06:14:49;4.55;;;3.38;;
62353;SDS011;48391;49.184;2.418;2023-04-06T06:17:15;4.10;;;3.38;;
62353;SDS011;48391;49.184;2.418;2023-04-06T06:19:41;5.18;;;4.10;;
62353;SDS011;48391;49.184;2.418;2023-04-06T06:22:07;4.22;;;3.47;;
62353;SDS011;48391;49.184;2.418;2023-04-06T06:24:33;3.75;;;2.90;;
62353;SDS011;48391;49.184;2.418;2023-04-06T06:27:00;4.25;;;3.65;;
62353;SDS011;48391;49.184;2.418;2023-04-06T06:29:26;3.45;;;3.15;;
62353;SDS011;48391;49.184;2.418;2023-04-06T06:31:52;4.50;;;3.10;;
62353;SDS011;48391;49.184;2.418;2023-04-06T06:34:18;3.75;;;2.78;;
62353;SDS011;48391;49.184;2.418;2023-04-06T06:36:44;3.10;;;2.90;;
62353;SDS011;48391;49.184;2.418;2023-04-06T06:39:10;2.60;;;2.40;;
62353;SDS011;48391;49.184;2.418;2023-04-06T06:41:36;5.03;;;3.45;;
62353;SDS011;48391;49.184;2.418;2023-04-06T06:44:02;6.93;;;5.10;;
62353;SDS011;48391;49.184;2.418;2023-04-06T06:46:28;6.82;;;5.30;;
62353;SDS011;48391;49.184;2.418;2023-04-06T06:48:54;7.38;;;5.55;;
62353;SDS011;48391;49.184;2.418;2023-04-06T06:51:20;7.43;;;5.18;;
62353;SDS011;48391;49.184;2.418;2023-04-06T06:53:47;5.57;;;4.32;;
62353;SDS011;48391;49.184;2.418;2023-04-06T06:56:13;4.78;;;3.97;;
62353;SDS011;48391;49.184;2.418;2023-04-06T06:58:39;6.43;;;4.28;;
62353;SDS011;48391;49.184;2.418;2023-04-06T07:01:05;3.80;;;3.40;;
62353;SDS011;48391;49.184;2.418;2023-04-06T07:03:32;4.82;;;3.83;;
62353;SDS011;48391;49.184;2.418;2023-04-06T07:05:58;4.07;;;3.17;;
62353;SDS011;48391;49.184;2.418;2023-04-06T07:08:24;3.30;;;3.00;;
62353;SDS011;48391;49.184;2.418;2023-04-06T07:10:50;3.92;;;2.92;;
62353;SDS011;48391;49.184;2.418;2023-04-06T07:13:25;4.25;;;3.15;;
62353;SDS011;48391;49.184;2.418;2023-04-06T07:15:52;4.35;;;3.42;;
62353;SDS011;48391;49.184;2.418;2023-04-06T07:18:19;5.10;;;3.40;;
62353;SDS011;48391;49.184;2.418;2023-04-06T07:20:45;4.28;;;3.67;;
62353;SDS011;48391;49.184;2.418;2023-04-06T07:23:11;3.50;;;3.20;;
62353;SDS011;48391;49.184;2.418;2023-04-06T07:25:37;6.78;;;3.88;;
62353;SDS011;48391;49.184;2.418;2023-04-06T07:28:03;5.18;;;3.35;;
62353;SDS011;48391;49.184;2.418;2023-04-06T07:30:30;3.17;;;2.88;;
62353;SDS011;48391;49.184;2.418;2023-04-06T07:32:56;4.75;;;3.30;;
62353;SDS011;48391;49.184;2.418;2023-04-06T07:35:23;5.90;;;4.38;;
62353;SDS011;48391;49.184;2.418;2023-04-06T07:37:49;3.90;;;3.42;;
62353;SDS011;48391;49.184;2.418;2023-04-06T07:40:15;4.88;;;3.15;;
62353;SDS011;48391;49.184;2.418;2023-04-06T07:42:41;3.72;;;3.17;;
62353;SDS011;48391;49.184;2.418;2023-04-06T07:45:07;4.45;;;3.33;;
62353;SDS011;48391;49.184;2.418;2023-04-06T07:47:34;3.78;;;3.15;;
62353;SDS011;48391;49.184;2.418;2023-04-06T07:50:00;4.10;;;3.20;;
62353;SDS011;48391;49.184;2.418;2023-04-06T07:52:26;2.53;;;2.33;;
62353;SDS011;48391;49.184;2.418;2023-04-06T07:54:52;3.42;;;3.13;;
62353;SDS011;48391;49.184;2.418;2023-04-06T07:57:18;3.17;;;2.88;;
62353;SDS011;48391;49.184;2.418;2023-04-06T07:59:45;4.32;;;3.20;;
62353;SDS011;48391;49.184;2.418;2023-04-06T08:02:11;4.13;;;3.08;;
62353;SDS011;48391;49.184;2.418;2023-04-06T08:04:37;6.70;;;4.47;;
62353;SDS011;48391;49.184;2.418;2023-04-06T08:07:03;6.90;;;5.57;;
62353;SDS011;48391;49.184;2.418;2023-04-06T08:09:29;5.53;;;4.10;;
62353;SDS011;48391;49.184;2.418;2023-04-06T08:11:55;8.05;;;5.85;;
62353;SDS011;48391;49.184;2.418;2023-04-06T08:14:21;8.05;;;5.68;;
62353;SDS011;48391;49.184;2.418;2023-04-06T08:16:47;6.50;;;4.78;;
62353;SDS011;48391;49.184;2.418;2023-04-06T08:19:13;4.85;;;4.35;;
62353;SDS011;48391;49.184;2.418;2023-04-06T08:21:42;8.73;;;6.47;;
62353;SDS011;48391;49.184;2.418;2023-04-06T08:24:08;8.98;;;6.18;;
62353;SDS011;48391;49.184;2.418;2023-04-06T08:26:34;8.27;;;5.90;;
62353;SDS011;48391;49.184;2.418;2023-04-06T08:29:00;9.20;;;5.63;;
62353;SDS011;48391;49.184;2.418;2023-04-06T08:31:26;8.13;;;5.95;;
62353;SDS011;48391;49.184;2.418;2023-04-06T08:33:52;9.80;;;5.80;;
62353;SDS011;48391;49.184;2.418;2023-04-06T08:36:18;6.82;;;5.53;;
62353;SDS011;48391;49.184;2.418;2023-04-06T08:38:47;7.07;;;5.75;;
62353;SDS011;48391;49.184;2.418;2023-04-06T08:41:14;9.27;;;7.03;;
62353;SDS011;48391;49.184;2.418;2023-04-06T08:43:43;7.40;;;6.03;;
62353;SDS011;48391;49.184;2.418;2023-04-06T08:46:10;7.07;;;5.22;;
62353;SDS011;48391;49.184;2.418;2023-04-06T08:48:38;10.48;;;7.13;;
62353;SDS011;48391;49.184;2.418;2023-04-06T08:51:05;7.50;;;5.60;;
62353;SDS011;48391;49.184;2.418;2023-04-06T08:53:31;7.70;;;6.18;;
62353;SDS011;48391;49.184;2.418;2023-04-06T08:55:58;7.15;;;5.63;;
62353;SDS011;48391;49.184;2.418;2023-04-06T08:58:24;9.10;;;6.68;;
62353;SDS011;48391;49.184;2.418;2023-04-06T09:00:51;9.00;;;6.82;;
62353;SDS011;48391;49.184;2.418;2023-04-06T09:03:18;10.80;;;7.10;;
62353;SDS011;48391;49.184;2.418;2023-04-06T09:05:45;10.88;;;8.00;;
62353;SDS011;48391;49.184;2.418;2023-04-06T09:08:12;10.98;;;8.15;;
62353;SDS011;48391;49.184;2.418;2023-04-06T09:10:41;11.23;;;7.90;;
62353;SDS011;48391;49.184;2.418;2023-04-06T09:13:08;10.90;;;7.35;;
62353;SDS011;48391;49.184;2.418;2023-04-06T09:15:34;8.13;;;6.57;;
62353;SDS011;48391;49.184;2.418;2023-04-06T09:18:00;7.75;;;6.05;;
62353;SDS011;48391;49.184;2.418;2023-04-06T09:20:27;8.00;;;6.28;;
62353;SDS011;48391;49.184;2.418;2023-04-06T09:22:55;9.80;;;6.68;;
62353;SDS011;48391;49.184;2.418;2023-04-06T09:25:22;7.78;;;6.35;;
62353;SDS011;48391;49.184;2.418;2023-04-06T09:28:11;10.13;;;7.60;;
62353;SDS011;48391;49.184;2.418;2023-04-06T09:30:36;12.00;;;9.32;;
62353;SDS011;48391;49.184;2.418;2023-04-06T09:33:13;12.00;;;7.57;;
62353;SDS011;48391;49.184;2.418;2023-04-06T09:35:39;11.02;;;8.20;;
62353;SDS011;48391;49.184;2.418;2023-04-06T09:38:10;12.43;;;8.98;;
62353;SDS011;48391;49.184;2.418;2023-04-06T09:40:46;10.57;;;6.95;;
62353;SDS011;48391;49.184;2.418;2023-04-06T09:43:12;9.65;;;7.25;;
62353;SDS011;48391;49.184;2.418;2023-04-06T09:45:48;9.30;;;7.35;;
62353;SDS011;48391;49.184;2.418;2023-04-06T09:48:14;10.18;;;8.07;;
62353;SDS011;48391;49.184;2.418;2023-04-06T09:50:40;11.82;;;8.30;;
62353;SDS011;48391;49.184;2.418;2023-04-06T09:53:06;10.80;;;8.80;;
62353;SDS011;48391;49.184;2.418;2023-04-06T09:55:43;9.15;;;7.13;;
62353;SDS011;48391;49.184;2.418;2023-04-06T09:58:09;13.13;;;10.10;;
62353;SDS011;48391;49.184;2.418;2023-04-06T10:00:43;14.23;;;10.80;;
62353;SDS011;48391;49.184;2.418;2023-04-06T10:05:52;9.98;;;8.93;;
62353;SDS011;48391;49.184;2.418;2023-04-06T10:08:20;9.07;;;7.60;;
62353;SDS011;48391;49.184;2.418;2023-04-06T10:10:48;9.50;;;6.80;;
62353;SDS011;48391;49.184;2.418;2023-04-06T10:13:16;9.00;;;8.00;;
62353;SDS011;48391;49.184;2.418;2023-04-06T10:15:42;9.05;;;7.22;;
62353;SDS011;48391;49.184;2.418;2023-04-06T10:18:08;7.97;;;6.68;;
62353;SDS011;48391;49.184;2.418;2023-04-06T10:20:57;9.10;;;5.95;;
62353;SDS011;48391;49.184;2.418;2023-04-06T10:25:54;7.90;;;6.15;;
62353;SDS011;48391;49.184;2.418;2023-04-06T10:28:20;9.27;;;6.63;;
62353;SDS011;48391;49.184;2.418;2023-04-06T10:30:46;7.55;;;6.28;;
62353;SDS011;48391;49.184;2.418;2023-04-06T10:33:13;5.65;;;5.10;;
62353;SDS011;48391;49.184;2.418;2023-04-06T10:35:39;8.50;;;5.88;;
62353;SDS011;48391;49.184;2.418;2023-04-06T10:38:05;7.22;;;6.13;;
62353;SDS011;48391;49.184;2.418;2023-04-06T10:40:35;5.50;;;4.90;;
62353;SDS011;48391;49.184;2.418;2023-04-06T10:43:34;5.90;;;5.20;;
62353;SDS011;48391;49.184;2.418;2023-04-06T10:45:57;6.25;;;4.90;;
62353;SDS011;48391;49.184;2.418;2023-04-06T10:48:23;6.43;;;5.22;;
62353;SDS011;48391;49.184;2.418;2023-04-06T10:50:53;4.05;;;3.70;;
62353;SDS011;48391;49.184;2.418;2023-04-06T10:53:26;7.80;;;5.20;;
62353;SDS011;48391;49.184;2.418;2023-04-06T10:55:56;7.93;;;6.05;;
62353;SDS011;48391;49.184;2.418;2023-04-06T10:58:25;5.30;;;4.33;;
62353;SDS011;48391;49.184;2.418;2023-04-06T11:00:51;7.78;;;4.28;;
62353;SDS011;48391;49.184;2.418;2023-04-06T11:03:18;5.03;;;3.80;;
62353;SDS011;48391;49.184;2.418;2023-04-06T11:05:47;3.92;;;3.53;;
62353;SDS011;48391;49.184;2.418;2023-04-06T11:08:32;4.40;;;4.00;;
62353;SDS011;48391;49.184;2.418;2023-04-06T11:11:11;4.40;;;3.45;;
62353;SDS011;48391;49.184;2.418;2023-04-06T11:13:41;3.92;;;3.53;;
62353;SDS011;48391;49.184;2.418;2023-04-06T11:18:49;4.45;;;3.08;;
62353;SDS011;48391;49.184;2.418;2023-04-06T11:21:15;3.28;;;2.97;;
62353;SDS011;48391;49.184;2.418;2023-04-06T11:23:41;2.95;;;2.70;;
62353;SDS011;48391;49.184;2.418;2023-04-06T11:26:11;3.72;;;3.42;;
62353;SDS011;48391;49.184;2.418;2023-04-06T11:28:38;4.43;;;3.35;;
62353;SDS011;48391;49.184;2.418;2023-04-06T11:31:04;2.90;;;2.67;;
62353;SDS011;48391;49.184;2.418;2023-04-06T11:33:34;5.22;;;2.65;;
62353;SDS011;48391;49.184;2.418;2023-04-06T11:36:01;3.05;;;2.72;;
62353;SDS011;48391;49.184;2.418;2023-04-06T11:38:27;2.67;;;2.40;;
62353;SDS011;48391;49.184;2.418;2023-04-06T11:40:53;2.58;;;2.05;;
62353;SDS011;48391;49.184;2.418;2023-04-06T11:43:25;1.83;;;1.58;;
62353;SDS011;48391;49.184;2.418;2023-04-06T11:45:52;2.05;;;1.67;;
62353;SDS011;48391;49.184;2.418;2023-04-06T11:48:26;3.63;;;2.08;;
62353;SDS011;48391;49.184;2.418;2023-04-06T11:50:55;2.72;;;2.38;;
62353;SDS011;48391;49.184;2.418;2023-04-06T11:53:22;3.60;;;1.75;;
62353;SDS011;48391;49.184;2.418;2023-04-06T11:55:48;3.47;;;2.42;;
62353;SDS011;48391;49.184;2.418;2023-04-06T11:58:14;1.77;;;1.67;;
62353;SDS011;48391;49.184;2.418;2023-04-06T12:00:40;2.03;;;1.50;;
62353;SDS011;48391;49.184;2.418;2023-04-06T12:03:10;1.80;;;1.35;;
62353;SDS011;48391;49.184;2.418;2023-04-06T12:05:36;2.10;;;1.92;;
62353;SDS011;48391;49.184;2.418;2023-04-06T12:08:03;1.83;;;1.55;;
62353;SDS011;48391;49.184;2.418;2023-04-06T12:10:29;1.50;;;1.40;;
62353;SDS011;48391;49.184;2.418;2023-04-06T12:12:55;3.78;;;1.67;;
62353;SDS011;48391;49.184;2.418;2023-04-06T12:15:21;0.75;;;0.75;;
62353;SDS011;48391;49.184;2.418;2023-04-06T12:17:47;2.20;;;0.95;;
62353;SDS011;48391;49.184;2.418;2023-04-06T12:20:14;1.77;;;0.88;;
62353;SDS011;48391;49.184;2.418;2023-04-06T12:22:40;1.50;;;1.30;;
62353;SDS011;48391;49.184;2.418;2023-04-06T12:25:06;2.05;;;1.23;;
62353;SDS011;48391;49.184;2.418;2023-04-06T12:27:32;1.73;;;0.80;;
62353;SDS011;48391;49.184;2.418;2023-04-06T12:29:58;0.75;;;0.60;;
62353;SDS011;48391;49.184;2.418;2023-04-06T12:32:24;1.90;;;0.88;;
62353;SDS011;48391;49.184;2.418;2023-04-06T12:34:51;2.45;;;0.70;;
62353;SDS011;48391;49.184;2.418;2023-04-06T12:37:18;1.48;;;1.00;;
62353;SDS011;48391;49.184;2.418;2023-04-06T12:39:45;0.98;;;0.40;;
62353;SDS011;48391;49.184;2.418;2023-04-06T12:42:11;1.35;;;0.60;;
62353;SDS011;48391;49.184;2.418;2023-04-06T12:44:38;2.17;;;0.63;;
62353;SDS011;48391;49.184;2.418;2023-04-06T12:47:04;4.82;;;1.05;;
62353;SDS011;48391;49.184;2.418;2023-04-06T12:49:32;4.25;;;0.50;;
62353;SDS011;48391;49.184;2.418;2023-04-06T12:51:58;2.30;;;0.68;;
62353;SDS011;48391;49.184;2.418;2023-04-06T12:54:24;0.73;;;0.70;;
62353;SDS011;48391;49.184;2.418;2023-04-06T12:56:51;0.82;;;0.60;;
62353;SDS011;48391;49.184;2.418;2023-04-06T12:59:17;2.42;;;0.90;;
62353;SDS011;48391;49.184;2.418;2023-04-06T13:01:43;2.25;;;0.32;;
62353;SDS011;48391;49.184;2.418;2023-04-06T13:04:09;1.20;;;0.50;;
62353;SDS011;48391;49.184;2.418;2023-04-06T13:06:36;1.85;;;0.85;;
62353;SDS011;48391;49.184;2.418;2023-04-06T13:09:02;1.55;;;0.63;;
62353;SDS011;48391;49.184;2.418;2023-04-06T13:11:30;1.63;;;0.52;;
62353;SDS011;48391;49.184;2.418;2023-04-06T13:13:56;5.07;;;0.70;;
62353;SDS011;48391;49.184;2.418;2023-04-06T13:16:22;1.95;;;0.55;;
62353;SDS011;48391;49.184;2.418;2023-04-06T13:18:48;1.67;;;0.93;;
62353;SDS011;48391;49.184;2.418;2023-04-06T13:21:15;1.42;;;0.50;;
62353;SDS011;48391;49.184;2.418;2023-04-06T13:23:41;1.40;;;0.40;;
62353;SDS011;48391;49.184;2.418;2023-04-06T13:26:08;2.05;;;0.40;;
62353;SDS011;48391;49.184;2.418;2023-04-06T13:28:34;11.10;;;1.40;;
62353;SDS011;48391;49.184;2.418;2023-04-06T13:31:02;2.22;;;1.02;;
62353;SDS011;48391;49.184;2.418;2023-04-06T13:33:29;1.90;;;0.95;;
62353;SDS011;48391;49.184;2.418;2023-04-06T13:35:55;5.63;;;1.30;;
62353;SDS011;48391;49.184;2.418;2023-04-06T13:38:22;4.63;;;1.30;;
62353;SDS011;48391;49.184;2.418;2023-04-06T13:40:51;1.77;;;0.70;;
62353;SDS011;48391;49.184;2.418;2023-04-06T13:43:17;6.22;;;0.95;;
62353;SDS011;48391;49.184;2.418;2023-04-06T13:45:49;2.35;;;0.40;;
62353;SDS011;48391;49.184;2.418;2023-04-06T13:48:15;3.28;;;0.47;;
62353;SDS011;48391;49.184;2.418;2023-04-06T13:50:41;1.50;;;0.93;;
62353;SDS011;48391;49.184;2.418;2023-04-06T13:53:07;0.93;;;0.57;;
62353;SDS011;48391;49.184;2.418;2023-04-06T13:55:33;3.83;;;0.85;;
62353;SDS011;48391;49.184;2.418;2023-04-06T13:57:59;2.78;;;0.85;;
62353;SDS011;48391;49.184;2.418;2023-04-06T14:00:25;2.22;;;0.93;;
62353;SDS011;48391;49.184;2.418;2023-04-06T14:02:53;3.38;;;0.60;;
62353;SDS011;48391;49.184;2.418;2023-04-06T14:05:20;2.47;;;0.60;;
62353;SDS011;48391;49.184;2.418;2023-04-06T14:07:46;2.70;;;0.63;;
62353;SDS011;48391;49.184;2.418;2023-04-06T14:10:13;3.80;;;0.65;;
62353;SDS011;48391;49.184;2.418;2023-04-06T14:12:40;3.75;;;1.27;;
62353;SDS011;48391;49.184;2.418;2023-04-06T14:15:07;3.10;;;1.00;;
62353;SDS011;48391;49.184;2.418;2023-04-06T14:17:33;6.13;;;1.17;;
62353;SDS011;48391;49.184;2.418;2023-04-06T14:19:59;6.70;;;1.23;;
62353;SDS011;48391;49.184;2.418;2023-04-06T14:22:25;5.15;;;1.38;;
62353;SDS011;48391;49.184;2.418;2023-04-06T14:24:51;3.70;;;0.70;;
62353;SDS011;48391;49.184;2.418;2023-04-06T14:27:17;3.53;;;0.80;;
62353;SDS011;48391;49.184;2.418;2023-04-06T14:29:43;3.10;;;1.10;;
62353;SDS011;48391;49.184;2.418;2023-04-06T14:32:09;5.15;;;1.27;;
62353;SDS011;48391;49.184;2.418;2023-04-06T14:34:39;2.47;;;0.47;;
62353;SDS011;48391;49.184;2.418;2023-04-06T14:37:05;2.50;;;0.63;;
62353;SDS011;48391;49.184;2.418;2023-04-06T14:39:31;0.93;;;0.45;;
62353;SDS011;48391;49.184;2.418;2023-04-06T14:41:58;2.28;;;0.50;;
62353;SDS011;48391;49.184;2.418;2023-04-06T14:44:24;5.78;;;1.40;;
62353;SDS011;48391;49.184;2.418;2023-04-06T14:46:50;3.40;;;0.65;;
62353;SDS011;48391;49.184;2.418;2023-04-06T14:49:16;5.10;;;0.82;;
62353;SDS011;48391;49.184;2.418;2023-04-06T14:51:42;2.72;;;0.60;;
62353;SDS011;48391;49.184;2.418;2023-04-06T14:54:08;1.85;;;1.00;;